createdAt,value
2018-08-12T00:00:28.076Z,7.73
2018-08-12T00:02:58.646Z,8.20
2018-08-12T00:05:28.304Z,8.23
2018-08-12T00:07:58.305Z,7.93
2018-08-12T00:10:27.702Z,7.90
2018-08-12T00:12:58.673Z,8.00
2018-08-12T00:15:28.929Z,8.37
2018-08-12T00:17:59.353Z,8.20
2018-08-12T00:20:28.478Z,8.00
2018-08-12T00:22:58.136Z,7.83
2018-08-12T00:25:27.246Z,8.50
2018-08-12T00:27:56.703Z,8.17
2018-08-12T00:30:26.292Z,8.10
2018-08-12T00:32:56.314Z,8.50
2018-08-12T00:35:25.764Z,8.47
2018-08-12T00:37:54.543Z,8.27
2018-08-12T00:40:24.198Z,8.50
2018-08-12T00:42:54.262Z,8.43
2018-08-12T00:45:23.739Z,8.73
2018-08-12T00:47:52.966Z,8.20
2018-08-12T00:50:23.233Z,8.10
2018-08-12T00:52:54.504Z,8.13
2018-08-12T00:55:24.804Z,7.93
2018-08-12T00:57:55.309Z,8.50
2018-08-12T01:00:27.124Z,8.10
2018-08-12T01:02:57.391Z,8.00
2018-08-12T01:05:27.572Z,8.30
2018-08-12T01:07:57.204Z,8.67
2018-08-12T01:10:27.188Z,8.40
2018-08-12T01:12:57.398Z,8.20
2018-08-12T01:15:27.789Z,8.00
2018-08-12T01:17:56.853Z,8.10
2018-08-12T01:20:27.152Z,8.33
2018-08-12T01:22:56.174Z,8.70
2018-08-12T01:25:25.186Z,9.00
2018-08-12T01:27:54.808Z,8.00
2018-08-12T01:30:24.721Z,8.17
2018-08-12T01:32:53.720Z,8.53
2018-08-12T01:35:23.179Z,7.93
2018-08-12T01:37:53.961Z,8.27
2018-08-12T01:40:23.929Z,8.20
2018-08-12T01:42:54.777Z,8.40
2018-08-12T01:45:24.651Z,8.00
2018-08-12T01:47:54.083Z,8.50
2018-08-12T01:50:23.944Z,8.30
2018-08-12T01:52:53.296Z,8.60
2018-08-12T01:55:24.652Z,8.50
2018-08-12T01:57:54.220Z,8.20
2018-08-12T02:00:24.417Z,8.50
2018-08-12T02:02:56.549Z,8.90
2018-08-12T02:05:26.863Z,8.40
2018-08-12T02:07:56.008Z,8.47
2018-08-12T02:10:25.503Z,8.10
2018-08-12T02:12:54.565Z,8.07
2018-08-12T02:15:24.492Z,8.20
2018-08-12T02:17:53.401Z,8.50
2018-08-12T02:20:22.348Z,8.40
2018-08-12T02:22:51.168Z,8.57
2018-08-12T02:25:20.604Z,8.40
2018-08-12T02:27:49.255Z,8.50
2018-08-12T02:30:19.403Z,8.30
2018-08-12T02:32:49.152Z,8.80
2018-08-12T02:35:18.797Z,8.43
2018-08-12T02:37:47.876Z,8.40
2018-08-12T02:40:19.178Z,8.10
2018-08-12T02:42:48.334Z,8.33
2018-08-12T02:45:18.670Z,8.70
2018-08-12T02:47:47.741Z,8.97
2018-08-12T02:50:17.377Z,8.37
2018-08-12T02:52:46.230Z,8.80
2018-08-12T02:55:15.585Z,8.20
2018-08-12T02:57:45.510Z,8.27
2018-08-12T03:00:15.021Z,8.30
2018-08-12T03:02:45.735Z,8.70
2018-08-12T03:05:15.407Z,8.47
2018-08-12T03:07:45.322Z,8.50
2018-08-12T03:10:14.648Z,8.50
2018-08-12T03:12:45.176Z,8.70
2018-08-12T03:15:14.898Z,9.03
2018-08-12T03:17:44.253Z,8.57
2018-08-12T03:20:14.168Z,8.40
2018-08-12T03:22:44.294Z,8.67
2018-08-12T03:25:13.053Z,8.30
2018-08-12T03:27:42.592Z,8.13
2018-08-12T03:30:12.606Z,8.70
2018-08-12T03:32:41.617Z,8.40
2018-08-12T03:35:11.666Z,8.10
2018-08-12T03:37:41.501Z,8.80
2018-08-12T03:40:12.680Z,9.10
2018-08-12T03:42:42.046Z,8.17
2018-08-12T03:45:11.764Z,8.87
2018-08-12T03:47:40.894Z,8.93
2018-08-12T03:50:11.504Z,8.33
2018-08-12T03:52:41.015Z,8.40
2018-08-12T03:55:11.455Z,8.83
2018-08-12T03:57:41.206Z,8.37
2018-08-12T04:00:15.311Z,8.50
2018-08-12T04:02:45.110Z,8.47
2018-08-12T04:05:14.352Z,9.00
2018-08-12T04:07:43.603Z,8.90
2018-08-12T04:10:12.726Z,8.60
2018-08-12T04:12:42.009Z,8.30
2018-08-12T04:15:12.017Z,9.10
2018-08-12T04:17:42.706Z,8.60
2018-08-12T04:20:12.585Z,8.63
2018-08-12T04:22:41.989Z,8.83
2018-08-12T04:25:11.512Z,8.80
2018-08-12T04:27:40.205Z,8.50
2018-08-12T04:30:10.548Z,8.60
2018-08-12T04:32:40.141Z,8.60
2018-08-12T04:35:09.749Z,8.80
2018-08-12T04:37:40.060Z,8.90
2018-08-12T04:40:11.015Z,8.50
2018-08-12T04:42:43.429Z,8.50
2018-08-12T04:45:14.238Z,9.00
2018-08-12T04:47:44.421Z,8.83
2018-08-12T04:50:13.461Z,8.50
2018-08-12T04:52:43.832Z,9.07
2018-08-12T04:55:13.029Z,8.60
2018-08-12T04:57:42.112Z,8.73
2018-08-12T05:00:13.104Z,8.90
2018-08-12T05:02:44.375Z,8.80
2018-08-12T05:05:14.903Z,8.10
2018-08-12T05:07:43.999Z,9.93
2018-08-12T05:10:13.877Z,8.43
2018-08-12T05:12:43.246Z,8.50
2018-08-12T05:15:13.546Z,8.40
2018-08-12T05:17:42.930Z,8.30
2018-08-12T05:20:12.334Z,8.50
2018-08-12T05:22:41.846Z,8.97
2018-08-12T05:25:11.495Z,8.17
2018-08-12T05:27:41.612Z,8.47
2018-08-12T05:30:12.203Z,8.60
2018-08-12T05:32:41.905Z,13.80
2018-08-12T05:35:13.393Z,8.60
2018-08-12T05:37:42.773Z,8.50
2018-08-12T05:40:12.900Z,8.23
2018-08-12T05:42:42.404Z,8.50
2018-08-12T05:45:11.829Z,8.50
2018-08-12T05:47:41.459Z,8.63
2018-08-12T05:50:11.552Z,8.40
2018-08-12T05:52:43.078Z,8.30
2018-08-12T05:55:13.671Z,8.60
2018-08-12T05:57:43.188Z,8.60
2018-08-12T06:00:14.542Z,8.37
2018-08-12T06:02:46.399Z,8.57
2018-08-12T06:05:17.197Z,8.63
2018-08-12T06:07:47.423Z,9.30
2018-08-12T06:10:18.176Z,12.53
2018-08-12T06:12:50.101Z,9.20
2018-08-12T06:15:19.837Z,8.23
2018-08-12T06:17:48.589Z,8.27
2018-08-12T06:20:19.519Z,8.30
2018-08-12T06:22:51.333Z,8.00
2018-08-12T06:25:21.240Z,8.57
2018-08-12T06:27:50.132Z,8.60
2018-08-12T06:30:19.101Z,8.30
2018-08-12T06:32:49.216Z,8.37
2018-08-12T06:35:20.223Z,8.63
2018-08-12T06:37:50.498Z,8.27
2018-08-12T06:40:20.807Z,8.33
2018-08-12T06:42:50.987Z,8.30
2018-08-12T06:45:21.428Z,8.40
2018-08-12T06:47:50.895Z,8.10
2018-08-12T06:50:22.404Z,8.40
2018-08-12T06:52:52.338Z,8.27
2018-08-12T06:55:23.003Z,7.90
2018-08-12T06:57:52.358Z,8.10
2018-08-12T07:00:21.406Z,8.90
2018-08-12T07:02:51.581Z,8.30
2018-08-12T07:05:21.203Z,8.30
2018-08-12T07:07:50.319Z,8.50
2018-08-12T07:10:20.820Z,8.00
2018-08-12T07:12:50.560Z,8.00
2018-08-12T07:15:21.160Z,8.10
2018-08-12T07:17:50.968Z,8.40
2018-08-12T07:20:20.185Z,8.10
2018-08-12T07:22:50.266Z,8.90
2018-08-12T07:25:20.630Z,8.20
2018-08-12T07:27:49.981Z,8.30
2018-08-12T07:30:18.896Z,8.57
2018-08-12T07:32:48.373Z,8.33
2018-08-12T07:35:18.102Z,8.27
2018-08-12T07:37:48.765Z,8.23
2018-08-12T07:40:20.161Z,8.90
2018-08-12T07:42:50.461Z,8.03
2018-08-12T07:45:19.746Z,8.13
2018-08-12T07:47:48.658Z,7.80
2018-08-12T07:50:18.611Z,8.33
2018-08-12T07:52:47.439Z,7.97
2018-08-12T07:55:17.160Z,7.77
2018-08-12T07:57:46.987Z,8.27
2018-08-12T08:00:18.545Z,7.83
2018-08-12T08:02:51.369Z,8.30
2018-08-12T08:05:20.620Z,8.83
2018-08-12T08:07:50.174Z,8.17
2018-08-12T08:10:20.453Z,8.57
2018-08-12T08:12:51.590Z,8.03
2018-08-12T08:15:22.008Z,8.73
2018-08-12T08:17:51.009Z,8.70
2018-08-12T08:20:20.612Z,8.27
2018-08-12T08:22:49.750Z,8.40
2018-08-12T08:25:19.467Z,8.57
2018-08-12T08:27:50.048Z,8.40
2018-08-12T08:30:19.476Z,8.10
2018-08-12T08:32:50.393Z,8.30
2018-08-12T08:35:22.046Z,8.07
2018-08-12T08:37:51.371Z,8.00
2018-08-12T08:40:22.252Z,10.00
2018-08-12T08:42:53.134Z,8.40
2018-08-12T08:45:22.965Z,8.27
2018-08-12T08:47:52.775Z,8.30
2018-08-12T08:50:23.465Z,8.33
2018-08-12T08:52:53.581Z,8.50
2018-08-12T08:55:22.803Z,8.57
2018-08-12T08:57:52.394Z,8.73
2018-08-12T09:00:21.904Z,8.37
2018-08-12T09:02:53.257Z,8.90
2018-08-12T09:05:23.189Z,9.00
2018-08-12T09:07:52.378Z,8.90
2018-08-12T09:10:26.600Z,9.10
2018-08-12T09:12:55.981Z,8.63
2018-08-12T09:15:25.794Z,9.20
2018-08-12T09:17:55.482Z,8.90
2018-08-12T09:20:25.176Z,8.63
2018-08-12T09:22:54.884Z,8.97
2018-08-12T09:25:25.080Z,10.70
2018-08-12T09:27:54.883Z,9.00
2018-08-12T09:30:25.265Z,8.77
2018-08-12T09:32:56.336Z,8.70
2018-08-12T09:35:26.485Z,8.70
2018-08-12T09:37:55.492Z,8.97
2018-08-12T09:40:24.219Z,8.40
2018-08-12T09:42:52.971Z,8.23
2018-08-12T09:45:22.821Z,8.60
2018-08-12T09:47:53.017Z,8.70
2018-08-12T09:50:23.515Z,8.53
2018-08-12T09:52:53.886Z,8.63
2018-08-12T09:55:24.825Z,12.23
2018-08-12T09:57:55.107Z,8.80
2018-08-12T10:00:26.791Z,8.77
2018-08-12T10:02:57.213Z,8.70
2018-08-12T10:05:27.335Z,8.90
2018-08-12T10:07:56.090Z,8.10
2018-08-12T10:10:26.084Z,8.43
2018-08-12T10:12:54.860Z,8.40
2018-08-12T10:15:25.206Z,8.73
2018-08-12T10:17:56.759Z,8.50
2018-08-12T10:20:27.109Z,8.40
2018-08-12T10:22:56.593Z,8.40
2018-08-12T10:25:26.448Z,9.50
2018-08-12T10:27:55.381Z,8.53
2018-08-12T10:30:27.022Z,8.30
2018-08-12T10:32:56.626Z,8.30
2018-08-12T10:35:26.715Z,8.37
2018-08-12T10:37:55.779Z,8.77
2018-08-12T10:40:24.816Z,8.90
2018-08-12T10:42:55.006Z,8.60
2018-08-12T10:45:25.468Z,8.40
2018-08-12T10:47:55.245Z,8.40
2018-08-12T10:50:25.867Z,8.23
2018-08-12T10:52:54.905Z,8.30
2018-08-12T10:55:25.236Z,8.53
2018-08-12T10:57:54.923Z,8.60
2018-08-12T11:00:27.427Z,8.80
2018-08-12T11:02:57.739Z,8.97
2018-08-12T11:05:28.102Z,8.23
2018-08-12T11:07:59.017Z,8.20
2018-08-12T11:10:29.191Z,8.30
2018-08-12T11:12:59.132Z,8.13
2018-08-12T11:15:28.221Z,8.77
2018-08-12T11:17:57.348Z,8.40
2018-08-12T11:20:26.587Z,8.50
2018-08-12T11:22:57.264Z,8.50
2018-08-12T11:25:27.022Z,8.27
2018-08-12T11:27:55.983Z,8.80
2018-08-12T11:30:26.739Z,8.47
2018-08-12T11:32:57.665Z,8.27
2018-08-12T11:35:26.965Z,8.53
2018-08-12T11:37:56.847Z,8.67
2018-08-12T11:40:26.407Z,8.70
2018-08-12T11:42:55.768Z,8.77
2018-08-12T11:45:24.633Z,8.40
2018-08-12T11:47:54.287Z,8.43
2018-08-12T11:50:24.016Z,8.10
2018-08-12T11:52:55.086Z,8.40
2018-08-12T11:55:25.527Z,8.40
2018-08-12T11:57:55.853Z,8.20
2018-08-12T12:00:25.731Z,7.90
2018-08-12T12:02:54.823Z,7.93
2018-08-12T12:05:24.103Z,8.40
2018-08-12T12:07:53.859Z,7.90
2018-08-12T12:10:23.875Z,8.10
2018-08-12T12:12:54.092Z,8.40
2018-08-12T12:15:23.882Z,8.37
2018-08-12T12:17:54.188Z,8.20
2018-08-12T12:20:24.783Z,8.73
2018-08-12T12:22:53.602Z,8.30
2018-08-12T12:25:22.594Z,8.10
2018-08-12T12:27:51.744Z,8.43
2018-08-12T12:30:22.794Z,7.70
2018-08-12T12:32:54.025Z,8.10
2018-08-12T12:35:23.376Z,8.10
2018-08-12T12:37:53.058Z,7.60
2018-08-12T12:40:23.535Z,7.70
2018-08-12T12:42:52.750Z,8.00
2018-08-12T12:45:22.761Z,8.30
2018-08-12T12:47:52.176Z,7.87
2018-08-12T12:50:23.895Z,7.90
2018-08-12T12:52:54.642Z,7.70
2018-08-12T12:55:24.934Z,7.70
2018-08-12T12:57:54.328Z,7.53
2018-08-12T13:00:23.721Z,7.87
2018-08-12T13:02:52.911Z,7.78
2018-08-12T13:05:22.586Z,7.78
2018-08-12T13:07:52.142Z,7.50
2018-08-12T13:10:21.869Z,7.67
2018-08-12T13:12:50.715Z,7.55
2018-08-12T13:15:19.594Z,7.97
2018-08-12T13:17:48.364Z,8.05
2018-08-12T13:20:19.123Z,7.80
2018-08-12T13:22:49.190Z,7.92
2018-08-12T13:25:20.436Z,7.97
2018-08-12T13:27:49.305Z,7.87
2018-08-12T13:30:20.264Z,7.67
2018-08-12T13:32:50.557Z,7.60
2018-08-12T13:35:20.787Z,7.65
2018-08-12T13:37:51.255Z,7.83
2018-08-12T13:40:21.838Z,7.83
2018-08-12T13:42:52.889Z,7.78
2018-08-12T13:45:22.476Z,7.30
2018-08-12T13:47:52.911Z,8.00
2018-08-12T13:50:23.375Z,7.67
2018-08-12T13:52:53.387Z,7.35
2018-08-12T13:55:23.517Z,7.72
2018-08-12T13:57:53.083Z,8.00
2018-08-12T14:00:23.993Z,7.83
2018-08-12T14:02:54.061Z,7.80
2018-08-12T14:05:23.756Z,7.80
2018-08-12T14:07:53.622Z,8.13
2018-08-12T14:10:25.174Z,8.10
2018-08-12T14:12:54.669Z,7.73
2018-08-12T14:15:24.635Z,8.00
2018-08-12T14:17:55.159Z,7.70
2018-08-12T14:20:24.718Z,8.10
2018-08-12T14:22:55.470Z,8.10
2018-08-12T14:25:26.019Z,8.40
2018-08-12T14:27:55.713Z,7.97
2018-08-12T14:30:25.029Z,8.37
2018-08-12T14:32:55.692Z,7.60
2018-08-12T14:35:26.467Z,8.20
2018-08-12T14:37:56.938Z,8.40
2018-08-12T14:40:27.402Z,8.00
2018-08-12T14:42:56.875Z,7.93
2018-08-12T14:45:26.242Z,7.97
2018-08-12T14:47:55.920Z,8.37
2018-08-12T14:50:25.949Z,7.80
2018-08-12T14:52:55.893Z,8.10
2018-08-12T14:55:24.990Z,7.70
2018-08-12T14:57:53.811Z,8.50
2018-08-12T15:00:22.846Z,8.47
2018-08-12T15:02:53.367Z,8.40
2018-08-12T15:05:22.830Z,8.30
2018-08-12T15:07:55.875Z,8.40
2018-08-12T15:10:25.834Z,8.30
2018-08-12T15:12:55.384Z,8.67
2018-08-12T15:15:24.806Z,7.57
2018-08-12T15:17:53.909Z,8.60
2018-08-12T15:20:22.789Z,8.00
2018-08-12T15:22:53.305Z,8.20
2018-08-12T15:25:22.745Z,8.57
2018-08-12T15:27:51.727Z,8.57
2018-08-12T15:30:22.201Z,8.57
2018-08-12T15:33:00.670Z,8.50
2018-08-12T15:35:31.529Z,8.47
2018-08-12T15:38:01.645Z,8.37
2018-08-12T15:40:35.256Z,8.20
2018-08-12T15:43:05.676Z,8.67
2018-08-12T15:45:42.158Z,8.47
2018-08-12T15:48:12.568Z,9.10
2018-08-12T15:50:43.460Z,8.13
2018-08-12T15:53:17.260Z,8.20
2018-08-12T15:55:49.436Z,8.27
2018-08-12T15:58:19.973Z,8.40
2018-08-12T16:00:50.094Z,8.10
2018-08-12T16:03:21.521Z,8.07
2018-08-12T16:05:51.382Z,8.27
2018-08-12T16:08:21.506Z,8.70
2018-08-12T16:10:51.804Z,8.50
2018-08-12T16:13:21.967Z,8.30
2018-08-12T16:15:53.188Z,8.50
2018-08-12T16:18:24.449Z,8.30
2018-08-12T16:20:55.197Z,8.70
2018-08-12T16:23:24.800Z,9.27
2018-08-12T16:25:54.463Z,9.83
2018-08-12T16:28:25.151Z,8.80
2018-08-12T16:30:54.382Z,8.53
2018-08-12T16:33:26.504Z,8.50
2018-08-12T16:35:57.150Z,8.87
2018-08-12T16:38:26.227Z,11.23
2018-08-12T16:40:55.543Z,10.67
2018-08-12T16:43:24.672Z,10.87
2018-08-12T16:45:55.017Z,9.43
2018-08-12T16:48:25.349Z,8.67
2018-08-12T16:50:55.668Z,11.30
2018-08-12T16:53:25.362Z,8.67
2018-08-12T16:55:56.812Z,9.03
2018-08-12T16:58:26.462Z,8.50
2018-08-12T17:00:56.549Z,9.20
2018-08-12T17:03:29.346Z,9.00
2018-08-12T17:06:00.324Z,9.23
2018-08-12T17:08:32.047Z,8.40
2018-08-12T17:11:01.461Z,8.67
2018-08-12T17:13:30.906Z,8.67
2018-08-12T17:16:00.865Z,8.57
2018-08-12T17:18:30.647Z,8.70
2018-08-12T17:21:00.509Z,8.80
2018-08-12T17:23:29.234Z,8.60
2018-08-12T17:25:58.183Z,8.53
2018-08-12T17:28:27.104Z,8.73
2018-08-12T17:30:56.264Z,8.57
2018-08-12T17:33:25.801Z,9.43
2018-08-12T17:35:55.873Z,8.50
2018-08-12T17:38:26.024Z,8.90
2018-08-12T17:40:55.137Z,8.70
2018-08-12T17:43:24.101Z,8.70
2018-08-12T17:45:54.157Z,8.90
2018-08-12T17:48:23.603Z,9.03
2018-08-12T17:50:54.106Z,8.67
2018-08-12T17:53:23.169Z,9.13
2018-08-12T17:55:53.376Z,9.37
2018-08-12T17:58:22.953Z,8.87
2018-08-12T18:00:52.409Z,9.10
2018-08-12T18:03:21.326Z,9.93
2018-08-12T18:05:50.676Z,9.73
2018-08-12T18:08:19.813Z,10.00
2018-08-12T18:10:48.905Z,10.17
2018-08-12T18:13:18.297Z,10.20
2018-08-12T18:15:48.291Z,9.63
2018-08-12T18:18:18.433Z,9.83
2018-08-12T18:20:53.676Z,9.83
2018-08-12T18:23:22.798Z,10.20
2018-08-12T18:25:53.911Z,10.10
2018-08-12T18:28:23.998Z,10.80
2018-08-12T18:30:55.913Z,10.20
2018-08-12T18:33:25.437Z,10.23
2018-08-12T18:35:54.717Z,11.17
2018-08-12T18:38:26.095Z,10.43
2018-08-12T18:40:55.730Z,10.23
2018-08-12T18:43:29.864Z,14.20
2018-08-12T18:45:59.891Z,14.77
2018-08-12T18:48:29.461Z,13.70
2018-08-12T18:51:00.637Z,12.53
2018-08-12T18:53:31.497Z,11.87
2018-08-12T18:56:01.126Z,11.43
2018-08-12T18:58:30.045Z,11.33
2018-08-12T19:01:01.545Z,11.63
2018-08-12T19:03:32.130Z,11.20
2018-08-12T19:06:03.495Z,11.60
2018-08-12T19:08:36.693Z,11.70
2018-08-12T19:11:07.544Z,10.87
2018-08-12T19:13:37.876Z,12.20
2018-08-12T19:16:08.784Z,11.77
2018-08-12T19:18:39.187Z,12.33
2018-08-12T19:21:09.718Z,12.20
2018-08-12T19:23:39.109Z,12.13
2018-08-12T19:26:09.220Z,12.63
2018-08-12T19:28:39.999Z,12.60
2018-08-12T19:31:09.232Z,13.37
2018-08-12T19:33:38.815Z,12.27
2018-08-12T19:36:07.544Z,12.60
2018-08-12T19:38:36.242Z,12.00
2018-08-12T19:41:06.703Z,12.37
2018-08-12T19:43:36.173Z,12.00
2018-08-12T19:46:06.238Z,12.80
2018-08-12T19:48:35.208Z,12.67
2018-08-12T19:51:04.297Z,13.93
2018-08-12T19:53:34.063Z,12.43
2018-08-12T19:56:04.461Z,12.13
2018-08-12T19:58:35.112Z,11.70
2018-08-12T20:01:03.940Z,12.03
2018-08-12T20:03:33.998Z,14.33
2018-08-12T20:06:04.357Z,11.70
2018-08-12T20:08:33.731Z,13.40
2018-08-12T20:11:03.921Z,12.47
2018-08-12T20:13:33.215Z,13.13
2018-08-12T20:16:01.885Z,12.37
2018-08-12T20:18:31.119Z,11.53
2018-08-12T20:21:00.302Z,12.23
2018-08-12T20:23:30.745Z,12.30
2018-08-12T20:26:00.390Z,12.37
2018-08-12T20:28:30.716Z,12.30
2018-08-12T20:31:00.878Z,13.27
2018-08-12T20:33:29.890Z,13.40
2018-08-12T20:36:00.787Z,13.60
2018-08-12T20:38:30.744Z,13.50
2018-08-12T20:41:00.156Z,13.27
2018-08-12T20:43:30.004Z,13.10
2018-08-12T20:46:00.229Z,13.37
2018-08-12T20:48:28.936Z,12.27
2018-08-12T20:50:58.653Z,12.90
2018-08-12T20:53:28.387Z,13.20
2018-08-12T20:55:57.531Z,13.40
2018-08-12T20:58:26.523Z,14.30
2018-08-12T21:00:56.306Z,13.60
2018-08-12T21:03:25.926Z,12.97
2018-08-12T21:05:55.564Z,13.60
2018-08-12T21:08:25.159Z,12.80
2018-08-12T21:10:55.104Z,13.20
2018-08-12T21:13:25.181Z,12.97
2018-08-12T21:15:54.457Z,12.77
2018-08-12T21:18:23.231Z,13.00
2018-08-12T21:20:52.911Z,13.20
2018-08-12T21:23:22.477Z,12.37
2018-08-12T21:25:52.388Z,12.70
2018-08-12T21:28:22.998Z,12.00
2018-08-12T21:30:52.808Z,13.47
2018-08-12T21:33:22.461Z,13.23
2018-08-12T21:35:54.021Z,16.90
2018-08-12T21:38:24.015Z,14.67
2018-08-12T21:40:53.186Z,14.83
2018-08-12T21:43:22.863Z,14.47
2018-08-12T21:45:53.285Z,14.10
2018-08-12T21:48:23.579Z,15.73
2018-08-12T21:50:58.347Z,14.70
2018-08-12T21:53:27.873Z,14.43
2018-08-12T21:55:59.583Z,14.20
2018-08-12T21:58:31.191Z,14.63
2018-08-12T22:01:02.772Z,13.80
2018-08-12T22:03:46.625Z,13.70
2018-08-12T22:06:20.001Z,14.00
2018-08-12T22:08:49.017Z,13.17
2018-08-12T22:11:18.301Z,23.80
2018-08-12T22:13:48.562Z,14.63
2018-08-12T22:18:55.867Z,13.87
2018-08-12T22:21:25.588Z,12.53
2018-08-12T22:23:55.330Z,13.10
2018-08-12T22:26:24.775Z,13.03
2018-08-12T22:28:54.191Z,13.03
2018-08-12T22:31:23.651Z,12.73
2018-08-12T22:33:53.196Z,13.27
2018-08-12T22:36:23.577Z,13.40
2018-08-12T22:38:53.853Z,13.30
2018-08-12T22:41:22.782Z,13.17
2018-08-12T22:43:51.624Z,12.70
2018-08-12T22:46:20.528Z,13.40
2018-08-12T22:48:50.445Z,13.20
2018-08-12T22:51:19.944Z,12.27
2018-08-12T22:53:48.997Z,12.60
2018-08-12T22:56:18.796Z,12.70
2018-08-12T22:58:49.176Z,13.23
2018-08-12T23:01:19.251Z,12.10
2018-08-12T23:03:49.121Z,13.00
2018-08-12T23:06:20.190Z,13.30
2018-08-12T23:08:49.625Z,13.00
2018-08-12T23:11:19.834Z,13.10
2018-08-12T23:13:49.124Z,13.50
2018-08-12T23:16:29.136Z,13.23
2018-08-12T23:18:58.452Z,13.00
2018-08-12T23:21:28.820Z,12.03
2018-08-12T23:23:59.203Z,12.70
2018-08-12T23:26:27.856Z,13.03
2018-08-12T23:28:58.089Z,13.40
2018-08-12T23:31:28.163Z,12.53
2018-08-12T23:33:58.257Z,12.90
2018-08-12T23:36:29.013Z,12.90
2018-08-12T23:38:59.412Z,14.67
2018-08-12T23:41:30.340Z,13.30
2018-08-12T23:44:00.123Z,13.10
2018-08-12T23:46:29.996Z,12.40
2018-08-12T23:48:59.517Z,12.83
2018-08-12T23:51:29.425Z,12.67
2018-08-12T23:53:59.342Z,12.47
2018-08-12T23:56:28.121Z,11.90
2018-08-12T23:58:57.994Z,12.00
